Time;durP1;ratioP1;P1;durP2;ratioP2;P2;SDS_P1;SDS_P2;PMS_P1;PMS_P2;Temp;Humidity;BMP_temperature;BMP_pressure;BME280_temperature;BME280_humidity;BME280_pressure;Samples;Min_cycle;Max_cycle;Signal;HPM_P1;HPM_P2
2021/09/20 00:02:21;;;;;;;;;;;;;;;21.96;85.87;101627.50;7283090;19;153316;-58
2021/09/20 00:04:49;;;;;;;;;;;;;;;21.95;85.61;101623.03;7293233;19;152014;-55
2021/09/20 00:07:16;;;;;;;;;;;;;;;21.96;86.07;101621.03;7281594;19;154739;-61
2021/09/20 00:09:46;;;;;;;;;;;;;;;21.97;85.90;101622.72;7287167;19;152124;-56
2021/09/20 00:12:13;;;;;;;;;;;;;;;21.98;86.05;101632.84;7286862;19;152243;-53
2021/09/20 00:14:40;;;;;;;;;;;;;;;21.96;85.59;101627.50;7282393;19;154818;-63
2021/09/20 00:17:07;;;;;;;;;;;;;;;21.97;85.58;101629.19;7279646;19;151868;-64
2021/09/20 00:19:35;;;;;;;;;;;;;;;21.96;85.76;101626.66;7282407;19;155950;-64
2021/09/20 00:22:02;;;;;;;;;;;;;;;21.96;85.71;101629.47;7282917;19;154393;-62
2021/09/20 00:24:30;;;;;;;;;;;;;;;21.96;85.71;101627.50;7286302;19;151928;-66
2021/09/20 00:26:57;;;;;;;;;;;;;;;22.00;86.33;101625.78;7289969;19;154141;-51
2021/09/20 00:29:24;;;;;;;;;;;;;;;21.99;86.22;101632.53;7284217;19;151900;-63
2021/09/20 00:31:51;;;;;;;;;;;;;;;21.97;85.90;101629.19;7285230;19;152085;-59
2021/09/20 00:34:18;;;;;;;;;;;;;;;21.99;85.77;101631.69;7281517;19;153354;-51
2021/09/20 00:36:44;;;;;;;;;;;;;;;21.97;85.71;101625.53;7284651;19;152195;-51
2021/09/20 00:39:11;;;;;;;;;;;;;;;21.96;86.10;101633.16;7280203;19;152131;-51
2021/09/20 00:41:38;;;;;;;;;;;;;;;21.98;86.01;101636.50;7283889;19;153967;-51
2021/09/20 00:44:05;;;;;;;;;;;;;;;21.98;86.46;101633.69;7283660;19;152039;-51
2021/09/20 00:46:32;;;;;;;;;;;;;;;21.97;86.39;101640.44;7287312;19;153177;-52
2021/09/20 00:48:59;;;;;;;;;;;;;;;21.99;86.08;101638.16;7284142;19;152207;-51
2021/09/20 00:51:26;;;;;;;;;;;;;;;21.98;86.07;101641.28;7281364;19;152070;-51
2021/09/20 00:53:52;;;;;;;;;;;;;;;21.98;85.99;101644.09;7282582;19;153966;-51
2021/09/20 00:56:20;;;;;;;;;;;;;;;21.98;86.53;101644.94;7281788;19;151951;-51
2021/09/20 00:58:47;;;;;;;;;;;;;;;21.96;86.53;101652.00;7282306;19;153053;-51
2021/09/20 01:01:14;;;;;;;;;;;;;;;21.96;86.48;101652.84;7282000;19;153703;-52
2021/09/20 01:03:41;;;;;;;;;;;;;;;21.99;86.75;101649.41;7282302;19;151927;-51
2021/09/20 01:06:07;;;;;;;;;;;;;;;21.97;86.47;101645.25;7284805;19;152796;-52
2021/09/20 01:08:34;;;;;;;;;;;;;;;21.96;86.73;101647.22;7289344;19;153989;-51
2021/09/20 01:11:01;;;;;;;;;;;;;;;21.97;86.36;101645.25;7284116;19;152271;-51
2021/09/20 01:13:28;;;;;;;;;;;;;;;21.98;86.79;101647.75;7282728;19;153527;-51
2021/09/20 01:15:54;;;;;;;;;;;;;;;21.98;86.63;101649.75;7284083;19;152177;-51
2021/09/20 01:18:21;;;;;;;;;;;;;;;21.99;86.38;101657.00;7277224;19;152941;-51
2021/09/20 01:20:48;;;;;;;;;;;;;;;21.99;86.34;101657.84;7281236;19;153149;-50
2021/09/20 01:23:16;;;;;;;;;;;;;;;22.00;86.29;101658.69;7284693;19;152311;-51
2021/09/20 01:25:43;;;;;;;;;;;;;;;21.99;86.12;101651.38;7284028;19;153728;-51
2021/09/20 01:28:10;;;;;;;;;;;;;;;21.97;86.19;101654.53;7282240;19;152640;-51
2021/09/20 01:30:36;;;;;;;;;;;;;;;21.97;86.59;101653.69;7288244;19;152596;-51
2021/09/20 01:33:03;;;;;;;;;;;;;;;21.96;86.06;101655.66;7282093;19;153225;-51
2021/09/20 01:35:30;;;;;;;;;;;;;;;21.97;86.64;101656.50;7282495;19;153705;-51
2021/09/20 01:37:57;;;;;;;;;;;;;;;21.98;86.17;101658.19;7283286;19;153237;-51
2021/09/20 01:40:24;;;;;;;;;;;;;;;21.98;86.29;101661.00;7281958;19;153969;-51
2021/09/20 01:42:50;;;;;;;;;;;;;;;21.97;85.79;101660.16;7283419;19;151676;-51
2021/09/20 01:45:17;;;;;;;;;;;;;;;21.96;85.90;101658.47;7279805;19;152128;-52
2021/09/20 01:47:44;;;;;;;;;;;;;;;21.97;85.97;101656.50;7281862;19;152282;-52
2021/09/20 01:50:12;;;;;;;;;;;;;;;21.94;85.80;101657.09;7282346;19;153857;-52
2021/09/20 01:52:40;;;;;;;;;;;;;;;21.96;86.00;101663.25;7286810;19;153760;-51
2021/09/20 01:55:07;;;;;;;;;;;;;;;21.94;85.66;101660.72;7281575;19;151782;-50
2021/09/20 01:57:34;;;;;;;;;;;;;;;21.96;86.25;101664.09;7278797;19;152550;-51
2021/09/20 02:00:03;;;;;;;;;;;;;;;21.96;85.79;101660.44;7276456;19;152385;-50
2021/09/20 02:02:30;;;;;;;;;;;;;;;21.96;85.91;101660.44;7281303;19;151838;-51
2021/09/20 02:04:57;;;;;;;;;;;;;;;21.95;85.40;101662.41;7283836;19;152781;-52
2021/09/20 02:07:24;;;;;;;;;;;;;;;21.93;85.40;101670.34;7279756;19;154138;-51
2021/09/20 02:09:50;;;;;;;;;;;;;;;21.95;85.86;101661.56;7282567;19;152126;-52
2021/09/20 02:12:17;;;;;;;;;;;;;;;21.94;85.70;101665.53;7280308;19;152559;-50
2021/09/20 02:14:44;;;;;;;;;;;;;;;21.94;85.29;101671.19;7284987;19;154251;-51
2021/09/20 02:17:11;;;;;;;;;;;;;;;21.94;85.80;101668.38;7282764;19;152653;-52
2021/09/20 02:19:39;;;;;;;;;;;;;;;21.94;85.69;101671.19;7272689;19;156049;-51
2021/09/20 02:22:09;;;;;;;;;;;;;;;21.92;85.40;101670.59;7280567;19;152155;-51
2021/09/20 02:24:35;;;;;;;;;;;;;;;21.92;85.22;101665.81;7282568;19;153339;-51
2021/09/20 02:27:02;;;;;;;;;;;;;;;21.92;85.35;101664.97;7278492;19;154187;-51
2021/09/20 02:29:29;;;;;;;;;;;;;;;21.93;85.12;101663.88;7280871;19;152195;-51
2021/09/20 02:31:55;;;;;;;;;;;;;;;21.92;85.21;101663.00;7280265;19;153750;-52
2021/09/20 02:34:22;;;;;;;;;;;;;;;21.93;84.89;101669.50;7279574;19;154356;-52
2021/09/20 02:36:49;;;;;;;;;;;;;;;21.89;85.17;101665.56;7285107;19;151694;-51
2021/09/20 02:39:16;;;;;;;;;;;;;;;21.92;85.41;101673.41;7279611;19;154004;-51
2021/09/20 02:41:42;;;;;;;;;;;;;;;21.89;85.27;101674.00;7287279;19;152411;-51
2021/09/20 02:44:12;;;;;;;;;;;;;;;21.89;84.90;101672.03;7287174;19;153402;-51
2021/09/20 02:46:39;;;;;;;;;;;;;;;21.91;85.49;101674.53;7285820;19;153703;-51
2021/09/20 02:49:06;;;;;;;;;;;;;;;21.90;84.88;101678.47;7286303;19;152209;-51
2021/09/20 02:51:32;;;;;;;;;;;;;;;21.90;84.83;101678.47;7287121;19;152383;-52
2021/09/20 02:53:59;;;;;;;;;;;;;;;21.89;84.85;101680.47;7285813;19;154010;-51
2021/09/20 02:56:26;;;;;;;;;;;;;;;21.90;85.18;101689.72;7294366;19;156299;-51
2021/09/20 02:58:52;;;;;;;;;;;;;;;21.89;84.83;101693.72;7284643;19;153914;-51
2021/09/20 03:01:19;;;;;;;;;;;;;;;21.91;85.10;101697.03;7287753;19;151899;-51
2021/09/20 03:03:46;;;;;;;;;;;;;;;21.89;85.13;101700.19;7284207;19;154824;-51
2021/09/20 03:06:13;;;;;;;;;;;;;;;21.91;85.13;101702.69;7284827;19;154911;-51
2021/09/20 03:08:40;;;;;;;;;;;;;;;21.91;85.33;101695.06;7286407;19;153467;-51
2021/09/20 03:11:06;;;;;;;;;;;;;;;21.92;85.50;101696.75;7286670;19;152931;-52
2021/09/20 03:13:33;;;;;;;;;;;;;;;21.90;85.41;101690.56;7285887;19;153269;-51
2021/09/20 03:16:00;;;;;;;;;;;;;;;21.89;85.22;101700.19;7285553;19;151614;-52
2021/09/20 03:18:27;;;;;;;;;;;;;;;21.89;85.22;101711.44;7293310;19;152716;-52
2021/09/20 03:20:58;;;;;;;;;;;;;;;21.89;84.74;101714.25;7279350;19;151875;-51
2021/09/20 03:23:25;;;;;;;;;;;;;;;21.89;84.91;101714.25;7287147;19;151918;-51
2021/09/20 03:25:52;;;;;;;;;;;;;;;21.89;85.25;101708.63;7283851;19;153449;-51
2021/09/20 03:28:18;;;;;;;;;;;;;;;21.91;85.27;101713.94;7284990;19;151986;-51
2021/09/20 03:30:45;;;;;;;;;;;;;;;21.89;84.93;101705.81;7287950;19;152657;-51
2021/09/20 03:33:12;;;;;;;;;;;;;;;21.90;84.91;101703.81;7283906;19;154001;-51
2021/09/20 03:35:38;;;;;;;;;;;;;;;21.88;84.76;101712.56;7284111;19;152312;-52
2021/09/20 03:38:05;;;;;;;;;;;;;;;21.88;84.68;101709.75;7286491;19;153494;-52
2021/09/20 03:40:32;;;;;;;;;;;;;;;21.89;84.71;101710.59;7291530;19;153700;-52
2021/09/20 03:42:59;;;;;;;;;;;;;;;21.87;84.86;101708.06;7286864;19;153539;-52
2021/09/20 03:45:25;;;;;;;;;;;;;;;21.85;84.40;101707.50;7280090;19;153469;-52
2021/09/20 03:47:52;;;;;;;;;;;;;;;21.86;84.34;101717.63;7285779;19;154017;-51
2021/09/20 03:50:19;;;;;;;;;;;;;;;21.88;84.60;101720.16;7286306;19;152092;-51
2021/09/20 03:52:47;;;;;;;;;;;;;;;21.85;84.62;101718.78;7284068;19;153305;-50
2021/09/20 03:55:14;;;;;;;;;;;;;;;21.86;84.62;101716.78;7283748;19;154157;-51
2021/09/20 03:57:41;;;;;;;;;;;;;;;21.85;84.30;101720.78;7281068;19;152611;-52
2021/09/20 04:00:09;;;;;;;;;;;;;;;21.85;84.31;101718.78;7283672;19;153477;-51
2021/09/20 04:02:36;;;;;;;;;;;;;;;21.85;84.25;101726.41;7292007;19;151789;-51
2021/09/20 04:05:04;;;;;;;;;;;;;;;21.85;84.05;101729.22;7284334;19;154173;-51
2021/09/20 04:07:30;;;;;;;;;;;;;;;21.83;84.14;101732.31;7286310;19;152534;-52
2021/09/20 04:09:57;;;;;;;;;;;;;;;21.84;84.38;101733.16;7283294;19;154834;-51
2021/09/20 04:12:24;;;;;;;;;;;;;;;21.83;84.41;101720.22;7284109;19;153823;-51
2021/09/20 04:14:51;;;;;;;;;;;;;;;21.82;84.17;101726.97;7284988;19;152425;-51
2021/09/20 04:17:17;;;;;;;;;;;;;;;21.84;84.10;101736.81;7285041;19;152963;-51
2021/09/20 04:19:44;;;;;;;;;;;;;;;21.81;84.24;101740.19;7282321;19;153559;-50
2021/09/20 04:22:11;;;;;;;;;;;;;;;21.83;84.05;101745.53;7281382;19;152255;-51
2021/09/20 04:24:38;;;;;;;;;;;;;;;21.81;84.48;101743.00;7292767;19;152683;-50
2021/09/20 04:27:04;;;;;;;;;;;;;;;21.81;84.26;101737.38;7283151;19;152180;-52
2021/09/20 04:29:31;;;;;;;;;;;;;;;21.81;84.33;101742.16;7284519;19;152024;-52
2021/09/20 04:31:58;;;;;;;;;;;;;;;21.81;84.33;101747.78;7281857;19;153817;-51
2021/09/20 04:34:25;;;;;;;;;;;;;;;21.81;84.53;101750.59;7283567;19;151957;-52
2021/09/20 04:36:52;;;;;;;;;;;;;;;21.80;84.29;101741.34;7285385;19;152545;-51
2021/09/20 04:39:18;;;;;;;;;;;;;;;21.80;84.19;101741.34;7281955;19;154546;-51
2021/09/20 04:41:48;;;;;;;;;;;;;;;21.80;84.59;101746.13;7284782;19;152011;-52
2021/09/20 04:44:14;;;;;;;;;;;;;;;21.80;84.39;101743.31;7284895;19;153302;-51
2021/09/20 04:46:41;;;;;;;;;;;;;;;21.81;84.28;101748.63;7289869;19;151713;-51
2021/09/20 04:49:08;;;;;;;;;;;;;;;21.77;84.26;101746.72;7285268;19;153690;-51
2021/09/20 04:51:35;;;;;;;;;;;;;;;21.78;84.09;101746.44;7282522;19;153644;-51
2021/09/20 04:54:01;;;;;;;;;;;;;;;21.80;84.63;101746.13;7285057;19;152052;-51
2021/09/20 04:56:28;;;;;;;;;;;;;;;21.78;84.13;101745.59;7282640;19;152996;-51
2021/09/20 04:58:55;;;;;;;;;;;;;;;21.78;83.99;101748.41;7280116;19;154368;-52
2021/09/20 05:01:22;;;;;;;;;;;;;;;21.78;83.88;101751.22;7283906;19;152149;-51
2021/09/20 05:03:52;;;;;;;;;;;;;;;21.78;84.39;101759.66;7279628;19;151913;-52
2021/09/20 05:06:19;;;;;;;;;;;;;;;21.80;84.28;101757.41;7289762;19;153718;-51
2021/09/20 05:08:45;;;;;;;;;;;;;;;21.80;84.25;101766.69;7282498;19;152786;-51
2021/09/20 05:11:12;;;;;;;;;;;;;;;21.79;83.78;101767.81;7283091;19;154742;-52
2021/09/20 05:13:39;;;;;;;;;;;;;;;21.79;83.69;101772.59;7281350;19;152314;-51
2021/09/20 05:16:06;;;;;;;;;;;;;;;21.80;84.06;101769.50;7284021;19;153379;-52
2021/09/20 05:18:33;;;;;;;;;;;;;;;21.79;83.71;101789.47;7282626;19;154190;-52
2021/09/20 05:20:59;;;;;;;;;;;;;;;21.78;83.65;101788.63;7279556;19;151823;-54
2021/09/20 05:23:26;;;;;;;;;;;;;;;21.78;83.87;101788.63;7280526;19;152582;-51
2021/09/20 05:25:53;;;;;;;;;;;;;;;21.77;83.68;101786.09;7282191;19;153871;-51
2021/09/20 05:28:19;;;;;;;;;;;;;;;21.78;83.58;101791.44;7287768;19;151851;-52
2021/09/20 05:30:46;;;;;;;;;;;;;;;21.76;83.61;101796.50;7279120;19;153936;-52
2021/09/20 05:33:15;;;;;;;;;;;;;;;21.75;83.30;101806.09;7282400;19;151929;-51
2021/09/20 05:35:44;;;;;;;;;;;;;;;21.77;83.67;101808.59;7282919;19;152673;-52
2021/09/20 05:38:14;;;;;;;;;;;;;;;21.74;83.59;101816.50;7282045;19;153511;-51
2021/09/20 05:40:42;;;;;;;;;;;;;;;21.76;83.40;101819.00;7281555;19;151987;-51
2021/09/20 05:43:10;;;;;;;;;;;;;;;21.74;83.38;101816.50;7283380;19;152660;-51
2021/09/20 05:45:37;;;;;;;;;;;;;;;21.74;83.56;101822.16;7280487;19;154234;-51
2021/09/20 05:48:04;;;;;;;;;;;;;;;21.74;83.62;101824.13;7282850;19;152141;-51
2021/09/20 05:50:30;;;;;;;;;;;;;;;21.73;83.34;101820.47;7286909;19;153354;-51
2021/09/20 05:52:57;;;;;;;;;;;;;;;21.74;83.08;101826.94;7283099;19;151797;-51
2021/09/20 05:55:24;;;;;;;;;;;;;;;21.73;83.43;101833.69;7279594;19;152687;-52
2021/09/20 05:57:51;;;;;;;;;;;;;;;21.74;82.91;101838.19;7279619;19;153252;-52
2021/09/20 06:00:18;;;;;;;;;;;;;;;21.71;83.07;101841.59;7278773;19;151842;-51
2021/09/20 06:02:46;;;;;;;;;;;;;;;21.70;83.32;101837.09;7282072;19;152657;-51
2021/09/20 06:05:14;;;;;;;;;;;;;;;21.70;82.91;101839.91;7280657;19;152936;-51
2021/09/20 06:07:41;;;;;;;;;;;;;;;21.71;82.88;101838.78;7281745;19;151623;-51
2021/09/20 06:10:08;;;;;;;;;;;;;;;21.70;82.78;101843.56;7281821;19;152667;-51
2021/09/20 06:12:35;;;;;;;;;;;;;;;21.69;82.58;101841.03;7286714;19;153223;-51
2021/09/20 06:15:06;;;;;;;;;;;;;;;21.68;83.02;101845.81;7283485;19;154996;-51
2021/09/20 06:17:33;;;;;;;;;;;;;;;21.71;82.72;101850.84;7287437;19;153299;-51
2021/09/20 06:20:00;;;;;;;;;;;;;;;21.70;82.11;101845.53;7287595;19;151823;-51
2021/09/20 06:22:27;;;;;;;;;;;;;;;21.64;80.90;101847.53;7284191;19;152675;-51
2021/09/20 06:24:56;;;;;;;;;;;;;;;21.60;80.54;101854.88;7284814;19;154137;-50
2021/09/20 06:27:23;;;;;;;;;;;;;;;21.65;82.31;101852.03;7285356;19;152196;-51
2021/09/20 06:29:50;;;;;;;;;;;;;;;21.64;81.79;101855.97;7287056;19;152896;-51
2021/09/20 06:32:16;;;;;;;;;;;;;;;21.61;80.75;101867.81;7286919;19;153974;-50
2021/09/20 06:34:43;;;;;;;;;;;;;;;21.59;80.68;101870.06;7294956;19;152026;-51
2021/09/20 06:37:10;;;;;;;;;;;;;;;21.56;80.29;101876.28;7286459;19;153886;-51
2021/09/20 06:39:37;;;;;;;;;;;;;;;21.54;79.98;101872.09;7285975;19;152106;-51
2021/09/20 06:42:05;;;;;;;;;;;;;;;21.52;79.69;101878.03;7286966;19;153732;-50
2021/09/20 06:44:33;;;;;;;;;;;;;;;21.53;80.88;101876.88;7285567;19;152623;-51
2021/09/20 06:46:59;;;;;;;;;;;;;;;21.49;78.46;101881.41;7285990;19;152203;-57
2021/09/20 06:49:26;;;;;;;;;;;;;;;21.23;71.79;101886.34;7288294;19;152778;-51
2021/09/20 06:51:54;;;;;;;;;;;;;;;21.08;70.67;101891.19;7286249;19;153475;-51
2021/09/20 06:54:21;;;;;;;;;;;;;;;21.10;69.89;101895.41;7295557;19;152455;-51
2021/09/20 06:56:48;;;;;;;;;;;;;;;20.98;70.24;101882.81;7283690;19;153855;-51
2021/09/20 06:59:16;;;;;;;;;;;;;;;21.01;69.71;101894.31;7289075;19;151731;-51
2021/09/20 07:01:43;;;;;;;;;;;;;;;20.89;69.97;101898.59;7281526;19;152650;-50
2021/09/20 07:04:10;;;;;;;;;;;;;;;20.82;69.55;101896.09;7284488;19;153241;-51
2021/09/20 07:06:37;;;;;;;;;;;;;;;20.78;70.08;101901.44;7286785;19;152471;-51
2021/09/20 07:09:04;;;;;;;;;;;;;;;20.70;69.94;101904.84;7287393;19;153679;-51
2021/09/20 07:11:31;;;;;;;;;;;;;;;20.65;69.89;101909.66;7284340;19;153488;-51
2021/09/20 07:13:58;;;;;;;;;;;;;;;20.57;70.34;101913.03;7285555;19;152334;-51
2021/09/20 07:16:25;;;;;;;;;;;;;;;20.60;70.87;101916.13;7293092;19;153404;-51
2021/09/20 07:18:52;;;;;;;;;;;;;;;20.58;71.59;101912.75;7286161;19;151871;-51
2021/09/20 07:21:22;;;;;;;;;;;;;;;20.62;71.11;101922.31;7285021;19;153729;-51
2021/09/20 07:24:05;;;;;;;;;;;;;;;20.71;72.94;101925.38;7283705;19;154690;-50
2021/09/20 07:26:32;;;;;;;;;;;;;;;20.74;73.08;101930.41;7283616;19;153235;-51
2021/09/20 07:29:00;;;;;;;;;;;;;;;20.72;74.55;101930.66;7287205;19;153618;-50
2021/09/20 07:31:27;;;;;;;;;;;;;;;20.74;75.74;101936.84;7284761;19;152504;-50
2021/09/20 07:33:54;;;;;;;;;;;;;;;20.75;76.44;101934.88;7285519;19;151674;-51
2021/09/20 07:36:21;;;;;;;;;;;;;;;20.76;76.30;101937.41;7284586;19;151648;-50
2021/09/20 07:38:48;;;;;;;;;;;;;;;20.79;76.74;101939.66;7291304;19;153986;-51
2021/09/20 07:41:15;;;;;;;;;;;;;;;20.79;77.00;101938.81;7281724;19;152871;-51
2021/09/20 07:43:46;;;;;;;;;;;;;;;20.83;77.11;101943.56;7284364;19;153459;-50
2021/09/20 07:46:14;;;;;;;;;;;;;;;20.88;77.50;101948.31;7283744;19;151846;-51
2021/09/20 07:48:42;;;;;;;;;;;;;;;20.92;77.46;101945.78;7285605;19;153394;-51
2021/09/20 07:51:11;;;;;;;;;;;;;;;20.99;77.25;101960.34;7284358;19;153377;-51
2021/09/20 07:53:38;;;;;;;;;;;;;;;21.04;77.21;101954.72;7283678;19;151771;-52
2021/09/20 07:56:05;;;;;;;;;;;;;;;21.09;77.40;101955.53;7284277;19;152554;-51
2021/09/20 07:58:32;;;;;;;;;;;;;;;21.17;77.46;101959.75;7285021;19;153930;-52
2021/09/20 08:00:59;;;;;;;;;;;;;;;21.24;77.08;101957.47;7291541;19;151636;-51
2021/09/20 08:03:26;;;;;;;;;;;;;;;21.31;77.50;101963.59;7284382;19;153391;-51
2021/09/20 08:05:54;;;;;;;;;;;;;;;21.37;77.15;101968.09;7285113;19;153473;-50
2021/09/20 08:08:20;;;;;;;;;;;;;;;21.42;77.27;101970.88;7284087;19;151718;-51
2021/09/20 08:10:48;;;;;;;;;;;;;;;21.47;77.64;101967.19;7282846;19;152836;-51
2021/09/20 08:13:15;;;;;;;;;;;;;;;21.52;77.48;101969.97;7283346;19;152213;-51
2021/09/20 08:15:44;;;;;;;;;;;;;;;21.59;77.43;101976.09;7283010;19;153963;-51
2021/09/20 08:18:12;;;;;;;;;;;;;;;21.63;77.58;101975.22;7284018;19;154293;-52
2021/09/20 08:20:42;;;;;;;;;;;;;;;21.68;77.44;101979.97;7282570;19;153996;-52
2021/09/20 08:23:10;;;;;;;;;;;;;;;21.72;77.33;101981.91;7289763;19;152264;-52
2021/09/20 08:25:55;;;;;;;;;;;;;;;21.77;76.91;101981.03;7279998;19;151836;-51
2021/09/20 08:28:22;;;;;;;;;;;;;;;21.82;76.98;101983.84;7284911;19;152344;-52
2021/09/20 08:30:49;;;;;;;;;;;;;;;21.86;76.62;101986.91;7283948;19;152587;-51
2021/09/20 08:33:16;;;;;;;;;;;;;;;21.89;76.82;101986.31;7284343;19;151889;-52
2021/09/20 08:35:45;;;;;;;;;;;;;;;21.95;76.43;101999.25;7281244;19;152735;-52
2021/09/20 08:38:12;;;;;;;;;;;;;;;21.99;76.31;102003.16;7282054;19;152194;-51
2021/09/20 08:40:39;;;;;;;;;;;;;;;22.01;76.45;102004.56;7281269;19;151932;-52
2021/09/20 08:43:07;;;;;;;;;;;;;;;22.04;76.37;102003.97;7286438;19;153235;-51
2021/09/20 08:45:34;;;;;;;;;;;;;;;22.07;76.34;102005.38;7290541;19;154590;-51
2021/09/20 08:48:01;;;;;;;;;;;;;;;22.10;75.99;102008.41;7283570;19;152938;-52
2021/09/20 08:50:31;;;;;;;;;;;;;;;22.13;76.06;102004.16;7283987;19;153334;-51
2021/09/20 08:52:58;;;;;;;;;;;;;;;22.15;75.95;102014.03;7284532;19;152457;-51
2021/09/20 08:55:34;;;;;;;;;;;;;;;22.17;76.03;102016.53;7284246;19;152860;-51
2021/09/20 08:58:02;;;;;;;;;;;;;;;22.18;75.55;102013.41;7280648;19;153432;-52
2021/09/20 09:00:30;;;;;;;;;;;;;;;22.21;75.88;102012.00;7282747;19;153970;-52
2021/09/20 09:02:57;;;;;;;;;;;;;;;22.24;75.93;102017.03;7282826;19;153751;-51
2021/09/20 09:05:26;;;;;;;;;;;;;;;22.27;75.48;102016.44;7290863;19;154535;-51
2021/09/20 09:08:04;;;;;;;;;;;;;;;22.29;75.65;102019.81;7282946;19;152769;-51
2021/09/20 09:10:33;;;;;;;;;;;;;;;22.31;75.36;102027.94;7282659;19;152707;-51
2021/09/20 09:13:04;;;;;;;;;;;;;;;22.33;75.72;102032.16;7281726;19;152067;-51
2021/09/20 09:15:32;;;;;;;;;;;;;;;22.34;75.65;102027.38;7283006;19;152623;-51
2021/09/20 09:18:01;;;;;;;;;;;;;;;22.36;75.28;102023.13;7279358;19;154459;-51
2021/09/20 09:20:30;;;;;;;;;;;;;;;22.37;75.69;102027.63;7279412;19;152097;-51
2021/09/20 09:22:58;;;;;;;;;;;;;;;22.38;75.13;102023.69;7279446;19;153465;-51
2021/09/20 09:25:36;;;;;;;;;;;;;;;22.36;75.60;102023.13;7277088;19;152710;-51
2021/09/20 09:28:13;;;;;;;;;;;;;;;22.37;75.70;102033.25;7285170;19;151991;-51
2021/09/20 09:30:44;;;;;;;;;;;;;;;22.37;75.51;102035.22;7282976;19;154389;-49
2021/09/20 09:33:18;;;;;;;;;;;;;;;22.37;75.45;102024.81;7282834;19;152436;-49
2021/09/20 09:35:48;;;;;;;;;;;;;;;22.32;75.23;102026.81;7283526;19;152659;-49
2021/09/20 09:38:16;;;;;;;;;;;;;;;22.35;75.30;102043.16;7282569;19;153178;-51
2021/09/20 09:40:51;;;;;;;;;;;;;;;22.32;76.00;102041.75;7283468;19;152710;-51
2021/09/20 09:43:29;;;;;;;;;;;;;;;22.37;75.46;102047.34;7282698;19;152386;-51
2021/09/20 09:46:00;;;;;;;;;;;;;;;22.38;75.50;102049.03;7281510;19;154306;-51
2021/09/20 09:48:30;;;;;;;;;;;;;;;22.39;75.29;102044.25;7280076;19;152270;-51
2021/09/20 09:51:00;;;;;;;;;;;;;;;22.39;75.65;102044.25;7288558;19;152628;-52
2021/09/20 09:53:35;;;;;;;;;;;;;;;22.39;75.46;102059.16;7281835;19;153102;-52
2021/09/20 09:56:19;;;;;;;;;;;;;;;22.39;75.65;102056.34;7282097;19;153365;-51
2021/09/20 09:59:02;;;;;;;;;;;;;;;22.40;75.17;102051.53;7280073;19;152200;-51
2021/09/20 10:01:33;;;;;;;;;;;;;;;22.39;75.43;102052.69;7280899;19;152727;-49
2021/09/20 10:04:05;;;;;;;;;;;;;;;22.38;75.63;102057.47;7280422;19;152879;-49
2021/09/20 10:06:52;;;;;;;;;;;;;;;22.39;75.72;102042.25;7281789;19;153696;-50
2021/09/20 10:09:23;;;;;;;;;;;;;;;22.40;75.38;102049.56;7283250;19;151901;-50
2021/09/20 10:11:51;;;;;;;;;;;;;;;22.42;75.40;102052.09;7280029;19;152279;-49
2021/09/20 10:14:20;;;;;;;;;;;;;;;22.41;75.40;102042.78;7288164;19;152626;-49
2021/09/20 10:16:49;;;;;;;;;;;;;;;22.41;75.59;102051.25;7283916;19;153029;-49
2021/09/20 10:19:16;;;;;;;;;;;;;;;22.42;75.74;102046.44;7280910;19;153743;-50
2021/09/20 10:21:44;;;;;;;;;;;;;;;22.42;75.37;102041.66;7278474;19;151637;-49
2021/09/20 10:24:12;;;;;;;;;;;;;;;22.44;75.90;102045.00;7282770;19;151911;-49
2021/09/20 10:26:40;;;;;;;;;;;;;;;22.44;75.76;102045.00;7275711;19;153418;-49
2021/09/20 10:29:11;;;;;;;;;;;;;;;22.46;75.48;102042.75;7280172;19;151797;-50
2021/09/20 10:31:40;;;;;;;;;;;;;;;22.45;75.66;102049.50;7280152;19;153378;-50
2021/09/20 10:34:20;;;;;;;;;;;;;;;22.45;76.13;102041.06;7279165;19;153903;-50
2021/09/20 10:36:53;;;;;;;;;;;;;;;22.46;76.09;102037.13;7287870;19;152221;-51
2021/09/20 10:39:39;;;;;;;;;;;;;;;22.48;75.89;102034.03;7280406;19;153786;-50
2021/09/20 10:42:06;;;;;;;;;;;;;;;22.50;75.54;102029.75;7278028;19;151946;-50
2021/09/20 10:44:39;;;;;;;;;;;;;;;22.49;75.90;102035.69;7279999;19;151963;-50
2021/09/20 10:47:14;;;;;;;;;;;;;;;22.48;75.71;102042.47;7278095;19;154132;-51
2021/09/20 10:49:48;;;;;;;;;;;;;;;22.47;76.07;102049.22;7281153;19;151861;-50
2021/09/20 10:52:16;;;;;;;;;;;;;;;22.46;76.28;102039.94;7278592;19;154304;-51
2021/09/20 10:55:03;;;;;;;;;;;;;;;22.46;75.99;102041.91;7278929;19;152239;-50
2021/09/20 10:57:31;;;;;;;;;;;;;;;22.45;76.44;102043.88;7275817;19;152038;-50
2021/09/20 11:00:16;;;;;;;;;;;;;;;22.46;76.12;102047.53;7286750;19;154542;-50
2021/09/20 11:02:44;;;;;;;;;;;;;;;22.46;76.44;102056.84;7286334;19;151987;-50
2021/09/20 11:05:12;;;;;;;;;;;;;;;22.49;76.13;102041.31;7287842;19;152795;-50
2021/09/20 11:07:43;;;;;;;;;;;;;;;22.50;75.91;102051.44;7284424;19;152388;-51
2021/09/20 11:10:11;;;;;;;;;;;;;;;22.50;76.02;102048.63;7286879;19;151755;-51
2021/09/20 11:13:17;;;;;;;;;;;;;;;22.48;76.04;102060.22;7285927;19;152307;-50
2021/09/20 11:15:46;;;;;;;;;;;;;;;22.50;76.20;102059.91;7281086;19;153378;-50
2021/09/20 11:18:35;;;;;;;;;;;;;;;22.49;76.40;102059.06;7283005;19;152376;-50
2021/09/20 11:21:06;;;;;;;;;;;;;;;22.48;76.69;102065.84;7291355;19;152974;-51
2021/09/20 11:23:36;;;;;;;;;;;;;;;22.45;76.48;102066.41;7285532;19;152897;-50
2021/09/20 11:26:11;;;;;;;;;;;;;;;22.45;76.64;102068.38;7284212;19;153303;-50
2021/09/20 11:28:40;;;;;;;;;;;;;;;22.46;76.52;102067.25;7279851;19;153550;-50
2021/09/20 11:31:08;;;;;;;;;;;;;;;22.46;76.60;102064.44;7287142;19;151906;-51
2021/09/20 11:33:42;;;;;;;;;;;;;;;22.41;76.67;102070.94;7285052;19;154073;-50
2021/09/20 11:36:14;;;;;;;;;;;;;;;22.46;76.24;102070.91;7284093;19;154156;-50
2021/09/20 11:38:42;;;;;;;;;;;;;;;22.47;76.69;102072.59;7282945;19;151708;-50
2021/09/20 11:41:20;;;;;;;;;;;;;;;22.45;76.52;102077.69;7286149;19;153654;-50
2021/09/20 11:43:47;;;;;;;;;;;;;;;22.48;76.71;102079.09;7291125;19;154303;-50
2021/09/20 11:46:20;;;;;;;;;;;;;;;22.47;76.61;102080.22;7285934;19;153733;-50
2021/09/20 11:49:00;;;;;;;;;;;;;;;22.45;76.98;102088.94;7284071;19;154074;-50
2021/09/20 11:51:29;;;;;;;;;;;;;;;22.46;76.70;102085.00;7285891;19;152116;-50
2021/09/20 11:53:56;;;;;;;;;;;;;;;22.45;77.11;102088.94;7284963;19;151817;-51
2021/09/20 11:56:25;;;;;;;;;;;;;;;22.44;76.85;102078.81;7284256;19;153223;-51
2021/09/20 11:58:53;;;;;;;;;;;;;;;22.44;76.78;102084.44;7285164;19;152025;-50
2021/09/20 12:01:23;;;;;;;;;;;;;;;22.43;76.95;102079.13;7285783;19;153122;-50
2021/09/20 12:03:55;;;;;;;;;;;;;;;22.43;77.04;102079.97;7281267;19;153457;-50
2021/09/20 12:06:25;;;;;;;;;;;;;;;22.43;76.98;102079.13;7292138;19;152018;-50
2021/09/20 12:08:54;;;;;;;;;;;;;;;22.42;76.94;102086.72;7283066;19;153350;-51
2021/09/20 12:11:23;;;;;;;;;;;;;;;22.42;76.86;102083.06;7284925;19;152715;-51
2021/09/20 12:13:50;;;;;;;;;;;;;;;22.40;77.22;102088.97;7282224;19;154565;-50
2021/09/20 12:16:17;;;;;;;;;;;;;;;22.40;76.82;102086.16;7281685;19;152064;-50
2021/09/20 12:18:45;;;;;;;;;;;;;;;22.41;77.14;102089.81;7283461;19;152088;-51
2021/09/20 12:21:13;;;;;;;;;;;;;;;22.39;76.89;102092.09;7284543;19;152084;-51
2021/09/20 12:23:44;;;;;;;;;;;;;;;22.39;76.83;102100.56;7281429;19;154019;-50
2021/09/20 12:26:14;;;;;;;;;;;;;;;22.38;77.47;102096.91;7284899;19;152366;-50
2021/09/20 12:28:47;;;;;;;;;;;;;;;22.39;76.87;102097.75;7287235;19;151681;-61
2021/09/20 12:31:15;;;;;;;;;;;;;;;22.37;77.33;102100.84;7279897;19;152603;-57
2021/09/20 12:33:52;;;;;;;;;;;;;;;22.39;77.44;102103.38;7282601;19;153486;-51
2021/09/20 12:36:20;;;;;;;;;;;;;;;22.39;77.13;102112.66;7285050;19;154069;-51